createdAt,value
2018-08-25T00:00:43.433Z,36.17
2018-08-25T00:03:15.331Z,45.40
2018-08-25T00:05:46.780Z,47.70
2018-08-25T00:08:19.576Z,44.17
2018-08-25T00:10:50.824Z,36.80
2018-08-25T00:13:22.512Z,33.43
2018-08-25T00:15:54.055Z,43.40
2018-08-25T00:18:25.736Z,43.27
2018-08-25T00:20:57.308Z,38.53
2018-08-25T00:23:29.209Z,41.23
2018-08-25T00:26:00.540Z,35.53
2018-08-25T00:28:32.245Z,45.37
2018-08-25T00:31:10.771Z,41.30
2018-08-25T00:33:42.500Z,43.77
2018-08-25T00:36:13.991Z,43.03
2018-08-25T00:38:45.464Z,48.83
2018-08-25T00:41:16.928Z,50.03
2018-08-25T00:43:48.628Z,42.03
2018-08-25T00:46:20.063Z,46.77
2018-08-25T00:48:51.784Z,46.33
2018-08-25T00:51:23.385Z,46.47
2018-08-25T00:53:54.864Z,43.83
2018-08-25T00:56:26.256Z,39.03
2018-08-25T00:58:57.777Z,40.03
2018-08-25T01:01:30.254Z,43.43
2018-08-25T01:04:05.156Z,46.60
2018-08-25T01:06:36.648Z,47.83
2018-08-25T01:09:10.676Z,34.17
2018-08-25T01:11:42.161Z,50.37
2018-08-25T01:14:13.835Z,44.67
2018-08-25T01:16:45.259Z,39.43
2018-08-25T01:19:16.972Z,49.30
2018-08-25T01:21:48.424Z,44.57
2018-08-25T01:24:20.092Z,45.07
2018-08-25T01:26:51.617Z,39.30
2018-08-25T01:29:23.164Z,41.03
2018-08-25T01:31:54.584Z,36.60
2018-08-25T01:34:26.452Z,38.33
2018-08-25T01:36:57.843Z,53.13
2018-08-25T01:39:30.945Z,46.00
2018-08-25T01:42:03.013Z,40.23
2018-08-25T01:44:35.112Z,41.73
2018-08-25T01:47:06.640Z,37.93
2018-08-25T01:49:38.379Z,44.57
2018-08-25T01:52:09.857Z,43.77
2018-08-25T01:54:41.664Z,40.80
2018-08-25T01:57:12.863Z,56.50
2018-08-25T01:59:44.656Z,47.57
2018-08-25T02:02:17.212Z,32.23
2018-08-25T02:04:49.254Z,42.80
2018-08-25T02:07:20.708Z,56.47
2018-08-25T02:09:52.928Z,47.47
2018-08-25T02:12:24.131Z,48.23
2018-08-25T02:14:56.000Z,40.97
2018-08-25T02:17:27.508Z,44.80
2018-08-25T02:19:59.900Z,43.70
2018-08-25T02:22:31.496Z,41.90
2018-08-25T02:25:03.283Z,57.33
2018-08-25T02:27:35.296Z,52.80
2018-08-25T02:30:07.533Z,47.27
2018-08-25T02:32:38.716Z,49.43
2018-08-25T02:35:10.266Z,47.43
2018-08-25T02:37:41.604Z,49.77
2018-08-25T02:40:13.968Z,39.80
2018-08-25T02:42:45.588Z,39.90
2018-08-25T02:45:17.159Z,39.80
2018-08-25T02:47:48.550Z,50.03
2018-08-25T02:50:20.112Z,42.90
2018-08-25T02:52:52.070Z,40.77
2018-08-25T02:55:23.768Z,38.17
2018-08-25T02:57:55.251Z,43.57
2018-08-25T03:00:26.848Z,35.80
2018-08-25T03:02:59.824Z,39.90
2018-08-25T03:05:31.333Z,37.33
2018-08-25T03:08:03.104Z,43.73
2018-08-25T03:10:34.853Z,35.43
2018-08-25T03:13:07.173Z,46.60
2018-08-25T03:15:38.919Z,37.53
2018-08-25T03:18:10.211Z,55.43
2018-08-25T03:20:41.871Z,43.80
2018-08-25T03:23:13.507Z,55.87
2018-08-25T03:25:45.240Z,70.23
2018-08-25T03:28:16.660Z,56.93
2018-08-25T03:30:48.537Z,60.83
2018-08-25T03:33:20.056Z,45.77
2018-08-25T03:35:52.185Z,55.90
2018-08-25T03:38:23.536Z,71.20
2018-08-25T03:40:55.520Z,62.63
2018-08-25T03:43:26.988Z,75.80
2018-08-25T03:45:58.665Z,78.00
2018-08-25T03:48:30.072Z,74.63
2018-08-25T03:51:02.432Z,75.37
2018-08-25T03:53:33.850Z,74.60
2018-08-25T03:56:05.509Z,80.63
2018-08-25T03:58:36.876Z,79.33
2018-08-25T04:01:08.858Z,73.17
2018-08-25T04:03:42.808Z,90.87
2018-08-25T04:06:14.651Z,94.53
2018-08-25T04:08:46.110Z,91.80
2018-08-25T04:11:17.755Z,86.60
2018-08-25T04:13:49.095Z,98.40
2018-08-25T04:16:21.088Z,76.37
2018-08-25T04:18:52.524Z,93.53
2018-08-25T04:21:24.162Z,87.07
2018-08-25T04:23:55.509Z,86.60
2018-08-25T04:26:26.904Z,107.97
2018-08-25T04:28:58.388Z,118.00
2018-08-25T04:31:30.431Z,100.10
2018-08-25T04:34:02.411Z,107.53
2018-08-25T04:36:34.219Z,106.10
2018-08-25T04:39:07.987Z,98.27
2018-08-25T04:41:39.964Z,95.92
2018-08-25T04:44:11.412Z,108.85
2018-08-25T04:46:42.942Z,136.40
2018-08-25T04:49:14.447Z,114.20
2018-08-25T04:51:46.365Z,112.90
2018-08-25T04:54:18.465Z,111.63
2018-08-25T04:56:51.044Z,122.55
2018-08-25T04:59:22.214Z,94.45
2018-08-25T05:01:54.006Z,115.47
2018-08-25T05:04:26.373Z,162.77
2018-08-25T05:06:58.720Z,158.70
2018-08-25T05:09:30.236Z,111.97
2018-08-25T05:12:03.361Z,110.42
2018-08-25T05:14:34.765Z,114.35
2018-08-25T05:17:07.388Z,125.38
2018-08-25T05:19:38.796Z,120.30
2018-08-25T05:22:10.353Z,111.30
2018-08-25T05:24:41.719Z,105.60
2018-08-25T05:27:13.332Z,122.92
2018-08-25T05:29:44.724Z,140.55
2018-08-25T05:32:16.457Z,126.75
2018-08-25T05:34:47.980Z,111.55
2018-08-25T05:37:19.428Z,142.87
2018-08-25T05:39:50.896Z,136.20
2018-08-25T05:42:22.753Z,114.72
2018-08-25T05:44:54.140Z,138.18
2018-08-25T05:47:25.726Z,123.67
2018-08-25T05:49:56.988Z,106.83
2018-08-25T05:52:29.101Z,182.32
2018-08-25T05:55:00.587Z,141.15
2018-08-25T05:57:32.298Z,136.62
2018-08-25T06:00:04.561Z,130.95
2018-08-25T06:02:36.201Z,130.35
2018-08-25T06:05:08.566Z,144.20
2018-08-25T06:07:39.735Z,128.35
2018-08-25T06:10:11.023Z,149.15
2018-08-25T06:12:42.580Z,117.70
2018-08-25T06:15:13.733Z,163.40
2018-08-25T06:17:44.969Z,130.82
2018-08-25T06:20:16.539Z,127.58
2018-08-25T06:22:47.984Z,114.30
2018-08-25T06:25:19.232Z,94.15
2018-08-25T06:27:50.904Z,100.70
2018-08-25T06:30:22.659Z,115.85
2018-08-25T06:32:54.500Z,121.60
2018-08-25T06:35:25.986Z,124.75
2018-08-25T06:37:57.537Z,119.85
2018-08-25T06:40:29.129Z,106.47
2018-08-25T06:43:01.627Z,101.87
2018-08-25T06:45:33.320Z,87.40
2018-08-25T06:48:05.860Z,87.08
2018-08-25T06:50:38.087Z,81.63
2018-08-25T06:53:12.103Z,90.10
2018-08-25T06:55:43.835Z,65.35
2018-08-25T06:58:15.841Z,74.77
2018-08-25T07:00:47.373Z,97.92
2018-08-25T07:03:19.383Z,103.72
2018-08-25T07:05:52.033Z,72.47
2018-08-25T07:08:23.692Z,85.22
2018-08-25T07:10:54.674Z,86.80
2018-08-25T07:13:25.908Z,64.53
2018-08-25T07:15:56.784Z,80.70
2018-08-25T07:18:28.115Z,73.52
2018-08-25T07:20:59.111Z,68.95
2018-08-25T07:23:30.360Z,55.48
2018-08-25T07:26:01.702Z,50.38
2018-08-25T07:28:33.184Z,67.78
2018-08-25T07:31:05.220Z,86.63
2018-08-25T07:33:36.447Z,92.45
2018-08-25T07:36:07.433Z,77.05
2018-08-25T07:38:38.715Z,90.38
2018-08-25T07:41:10.088Z,98.92
2018-08-25T07:43:41.888Z,89.62
2018-08-25T07:46:13.357Z,112.25
2018-08-25T07:48:45.097Z,117.53
2018-08-25T07:51:16.555Z,121.60
2018-08-25T07:53:48.524Z,102.50
2018-08-25T07:56:19.947Z,91.22
2018-08-25T07:58:51.721Z,96.50
2018-08-25T08:01:23.228Z,92.30
2018-08-25T08:03:55.007Z,101.10
2018-08-25T08:06:27.089Z,110.08
2018-08-25T08:08:58.532Z,97.95
2018-08-25T08:11:30.369Z,114.47
2018-08-25T08:14:02.700Z,98.45
2018-08-25T08:16:34.261Z,106.58
2018-08-25T08:19:06.013Z,91.28
2018-08-25T08:21:37.499Z,115.52
2018-08-25T08:24:09.624Z,111.25
2018-08-25T08:26:41.080Z,112.35
2018-08-25T08:29:12.861Z,94.83
2018-08-25T08:31:44.328Z,121.00
2018-08-25T08:34:16.100Z,100.12
2018-08-25T08:36:47.285Z,112.25
2018-08-25T08:39:18.837Z,111.45
2018-08-25T08:41:50.093Z,113.55
2018-08-25T08:44:21.720Z,103.07
2018-08-25T08:46:53.271Z,122.40
2018-08-25T08:49:24.876Z,117.45
2018-08-25T08:51:56.204Z,98.25
2018-08-25T08:54:27.769Z,128.55
2018-08-25T08:56:59.252Z,107.60
2018-08-25T08:59:31.040Z,106.75
2018-08-25T09:02:02.435Z,114.25
2018-08-25T09:04:34.189Z,121.67
2018-08-25T09:07:06.285Z,120.15
2018-08-25T09:09:38.163Z,116.40
2018-08-25T09:12:09.681Z,104.32
2018-08-25T09:14:41.472Z,107.70
2018-08-25T09:17:12.834Z,109.03
2018-08-25T09:19:44.696Z,112.77
2018-08-25T09:22:16.364Z,120.20
2018-08-25T09:24:47.831Z,98.85
2018-08-25T09:27:19.088Z,105.93
2018-08-25T09:29:50.576Z,91.35
2018-08-25T09:32:22.080Z,124.27
2018-08-25T09:34:53.459Z,127.23
2018-08-25T09:37:24.797Z,121.47
2018-08-25T09:39:56.986Z,111.60
2018-08-25T09:42:28.560Z,110.32
2018-08-25T09:45:00.297Z,119.15
2018-08-25T09:47:31.700Z,142.13
2018-08-25T09:50:03.323Z,126.67
2018-08-25T09:52:34.557Z,113.55
2018-08-25T09:55:06.980Z,101.00
2018-08-25T09:57:38.528Z,95.97
2018-08-25T10:00:11.463Z,126.50
2018-08-25T10:02:42.888Z,121.40
2018-08-25T10:05:14.923Z,120.35
2018-08-25T10:07:48.020Z,108.20
2018-08-25T10:10:19.666Z,100.97
2018-08-25T10:12:51.049Z,116.10
2018-08-25T10:15:23.175Z,121.42
2018-08-25T10:17:54.511Z,125.87
2018-08-25T10:20:26.333Z,112.20
2018-08-25T10:22:57.742Z,99.63
2018-08-25T10:25:29.496Z,102.83
2018-08-25T10:28:01.381Z,124.15
2018-08-25T10:30:33.103Z,97.70
2018-08-25T10:33:05.503Z,83.97
2018-08-25T10:35:37.111Z,90.40
2018-08-25T10:38:08.705Z,117.40
2018-08-25T10:40:40.387Z,97.97
2018-08-25T10:43:11.753Z,92.35
2018-08-25T10:45:43.757Z,83.63
2018-08-25T10:48:15.177Z,103.17
2018-08-25T10:50:47.145Z,78.10
2018-08-25T10:53:18.475Z,83.50
2018-08-25T10:55:49.977Z,88.30
2018-08-25T10:58:21.380Z,80.63
2018-08-25T11:00:53.392Z,97.23
2018-08-25T11:03:24.863Z,78.27
2018-08-25T11:05:56.521Z,64.77
2018-08-25T11:08:29.945Z,94.87
2018-08-25T11:11:04.920Z,70.37
2018-08-25T11:13:36.592Z,73.47
2018-08-25T11:16:09.828Z,84.63
2018-08-25T11:18:41.995Z,71.47
2018-08-25T11:21:14.169Z,72.00
2018-08-25T11:23:45.619Z,62.87
2018-08-25T11:26:17.376Z,67.17
2018-08-25T11:28:49.061Z,70.63
2018-08-25T11:31:20.690Z,55.83
2018-08-25T11:33:52.278Z,58.60
2018-08-25T11:36:23.852Z,52.43
2018-08-25T11:38:55.196Z,57.40
2018-08-25T11:41:26.852Z,56.47
2018-08-25T11:43:58.446Z,59.47
2018-08-25T11:46:30.175Z,54.00
2018-08-25T11:49:04.642Z,56.40
2018-08-25T11:51:36.633Z,51.90
2018-08-25T11:54:09.194Z,36.93
2018-08-25T11:56:41.181Z,49.37
2018-08-25T11:59:12.982Z,41.23
2018-08-25T12:01:45.287Z,49.03
2018-08-25T12:04:17.142Z,55.07
2018-08-25T12:06:49.108Z,46.33
2018-08-25T12:09:21.551Z,57.23
2018-08-25T12:11:53.545Z,43.03
2018-08-25T12:14:25.122Z,49.33
2018-08-25T12:16:56.669Z,48.63
2018-08-25T12:19:28.044Z,46.40
2018-08-25T12:21:59.772Z,40.73
2018-08-25T12:24:31.265Z,49.30
2018-08-25T12:27:03.957Z,37.70
2018-08-25T12:29:35.184Z,40.53
2018-08-25T12:32:06.712Z,42.63
2018-08-25T12:34:38.210Z,43.47
2018-08-25T12:37:10.135Z,50.60
2018-08-25T12:39:41.708Z,45.43
2018-08-25T12:42:13.510Z,37.80
2018-08-25T12:44:44.899Z,44.83
2018-08-25T12:47:17.277Z,41.30
2018-08-25T12:49:48.899Z,53.37
2018-08-25T12:52:20.964Z,36.37
2018-08-25T12:54:52.625Z,36.23
2018-08-25T12:57:24.942Z,39.03
2018-08-25T12:59:56.885Z,39.50
2018-08-25T13:02:29.839Z,36.83
2018-08-25T13:05:01.913Z,39.70
2018-08-25T13:07:33.962Z,37.57
2018-08-25T13:10:06.984Z,54.63
2018-08-25T13:12:38.636Z,36.37
2018-08-25T13:15:10.386Z,50.10
2018-08-25T13:17:42.458Z,46.10
2018-08-25T13:20:14.155Z,41.87
2018-08-25T13:22:46.596Z,45.17
2018-08-25T13:25:19.906Z,45.30
2018-08-25T13:27:52.081Z,42.67
2018-08-25T13:30:23.928Z,38.00
2018-08-25T13:32:55.951Z,46.70
2018-08-25T13:35:27.427Z,36.70
2018-08-25T13:37:58.909Z,50.30
2018-08-25T13:40:30.386Z,35.47
2018-08-25T13:43:03.376Z,41.43
2018-08-25T13:45:36.534Z,43.87
2018-08-25T13:48:08.573Z,44.07
2018-08-25T13:50:39.986Z,46.33
2018-08-25T13:53:11.892Z,46.33
2018-08-25T13:55:43.478Z,37.73
2018-08-25T13:58:15.276Z,43.70
2018-08-25T14:00:46.948Z,42.27
2018-08-25T14:03:18.833Z,50.37
2018-08-25T14:05:50.242Z,43.47
2018-08-25T14:08:22.760Z,48.93
2018-08-25T14:10:56.076Z,39.20
2018-08-25T14:13:27.857Z,43.47
2018-08-25T14:15:59.581Z,47.53
2018-08-25T14:18:31.567Z,47.80
2018-08-25T14:21:03.284Z,38.63
2018-08-25T14:23:35.022Z,41.37
2018-08-25T14:26:06.445Z,43.03
2018-08-25T14:28:38.588Z,36.97
2018-08-25T14:31:10.171Z,44.70
2018-08-25T14:33:41.866Z,42.53
2018-08-25T14:36:13.215Z,37.47
2018-08-25T14:38:45.139Z,39.07
2018-08-25T14:41:16.839Z,45.57
2018-08-25T14:43:48.375Z,43.10
2018-08-25T14:46:19.944Z,32.90
2018-08-25T14:48:51.879Z,41.33
2018-08-25T14:51:23.262Z,46.33
2018-08-25T14:53:55.954Z,38.87
2018-08-25T14:56:27.666Z,42.57
2018-08-25T14:58:59.874Z,42.13
2018-08-25T15:01:31.146Z,54.33
2018-08-25T15:04:03.722Z,45.30
2018-08-25T15:06:35.361Z,43.20
2018-08-25T15:09:09.562Z,35.20
2018-08-25T15:11:43.287Z,39.40
2018-08-25T15:14:15.164Z,39.77
2018-08-25T15:16:46.804Z,47.53
2018-08-25T15:19:18.973Z,41.53
2018-08-25T15:21:50.386Z,42.50
2018-08-25T15:24:22.039Z,36.77
2018-08-25T15:26:54.029Z,37.47
2018-08-25T15:29:25.854Z,48.37
2018-08-25T15:31:57.212Z,41.07
2018-08-25T15:34:29.106Z,41.20
2018-08-25T15:37:01.495Z,39.73
2018-08-25T15:39:33.358Z,36.60
2018-08-25T15:42:07.530Z,47.53
2018-08-25T15:44:39.239Z,37.97
2018-08-25T15:47:10.891Z,33.90
2018-08-25T15:49:42.839Z,40.60
2018-08-25T15:52:14.275Z,46.60
2018-08-25T15:54:45.926Z,38.73
2018-08-25T15:57:17.675Z,40.20
2018-08-25T15:59:49.511Z,42.27
2018-08-25T16:02:20.854Z,35.63
2018-08-25T16:04:52.587Z,36.83
2018-08-25T16:07:24.331Z,38.87
2018-08-25T16:09:56.207Z,46.60
2018-08-25T16:12:29.206Z,45.53
2018-08-25T16:15:01.191Z,39.63
2018-08-25T16:17:33.935Z,45.33
2018-08-25T16:20:08.301Z,45.67
2018-08-25T16:22:40.153Z,39.97
2018-08-25T16:25:12.023Z,43.33
2018-08-25T16:27:43.773Z,39.00
2018-08-25T16:30:15.467Z,39.57
2018-08-25T16:32:46.980Z,41.77
2018-08-25T16:35:18.761Z,46.80
2018-08-25T16:37:50.815Z,38.83
2018-08-25T16:40:23.018Z,47.30
2018-08-25T16:42:54.982Z,40.87
2018-08-25T16:45:26.815Z,42.23
2018-08-25T16:47:58.511Z,38.67
2018-08-25T16:50:30.302Z,44.27
2018-08-25T16:53:04.605Z,41.00
2018-08-25T16:55:36.861Z,47.30
2018-08-25T16:58:08.401Z,50.97
2018-08-25T17:00:41.634Z,39.03
2018-08-25T17:03:13.075Z,37.80
2018-08-25T17:05:44.859Z,41.47
2018-08-25T17:08:16.435Z,53.07
2018-08-25T17:10:49.067Z,51.67
2018-08-25T17:13:22.035Z,34.07
2018-08-25T17:15:53.593Z,47.73
2018-08-25T17:18:25.221Z,42.47
2018-08-25T17:20:57.165Z,40.40
2018-08-25T17:23:28.713Z,35.00
2018-08-25T17:26:01.210Z,38.30
2018-08-25T17:28:32.584Z,41.97
2018-08-25T17:31:05.174Z,45.50
2018-08-25T17:33:36.619Z,39.77
2018-08-25T17:36:08.737Z,53.60
2018-08-25T17:38:40.507Z,37.07
2018-08-25T17:41:12.502Z,44.63
2018-08-25T17:43:43.851Z,48.93
2018-08-25T17:46:16.063Z,44.33
2018-08-25T17:48:47.630Z,40.13
2018-08-25T17:51:19.488Z,43.93
2018-08-25T17:53:50.911Z,37.20
2018-08-25T17:56:22.545Z,43.53
2018-08-25T17:58:54.028Z,41.93
2018-08-25T18:01:25.827Z,53.67
2018-08-25T18:03:57.359Z,40.57
2018-08-25T18:06:29.362Z,43.17
2018-08-25T18:09:00.904Z,40.37
2018-08-25T18:11:32.930Z,55.63
2018-08-25T18:14:05.565Z,37.67
2018-08-25T18:16:37.454Z,47.90
2018-08-25T18:19:09.082Z,48.80
2018-08-25T18:21:40.774Z,52.13
2018-08-25T18:24:12.166Z,33.93
2018-08-25T18:26:44.126Z,45.73
2018-08-25T18:29:15.757Z,53.27
2018-08-25T18:31:47.448Z,40.87
2018-08-25T18:34:19.500Z,44.50
2018-08-25T18:36:51.140Z,42.10
2018-08-25T18:39:22.679Z,55.87
2018-08-25T18:41:54.247Z,44.20
2018-08-25T18:44:25.591Z,50.27
2018-08-25T18:46:57.711Z,40.60
2018-08-25T18:49:29.426Z,50.77
2018-08-25T18:52:01.635Z,42.90
2018-08-25T18:54:33.102Z,42.20
2018-08-25T18:57:05.719Z,40.50
2018-08-25T18:59:37.187Z,38.03
2018-08-25T19:02:09.164Z,43.07
2018-08-25T19:04:40.738Z,50.60
2018-08-25T19:07:12.722Z,39.00
2018-08-25T19:09:44.443Z,37.97
2018-08-25T19:12:16.430Z,44.17
2018-08-25T19:14:49.447Z,41.27
2018-08-25T19:17:21.271Z,36.80
2018-08-25T19:19:52.802Z,35.03
2018-08-25T19:22:24.486Z,50.03
2018-08-25T19:24:55.817Z,49.10
2018-08-25T19:27:27.790Z,44.43
2018-08-25T19:29:59.179Z,47.50
2018-08-25T19:32:31.037Z,39.63
2018-08-25T19:35:02.681Z,45.23
2018-08-25T19:37:34.305Z,36.97
2018-08-25T19:40:05.858Z,42.33
2018-08-25T19:42:38.198Z,36.37
2018-08-25T19:45:09.874Z,36.23
2018-08-25T19:47:41.780Z,42.97
2018-08-25T19:50:13.274Z,43.67
2018-08-25T19:52:45.493Z,34.20
2018-08-25T19:55:16.950Z,49.30
2018-08-25T19:57:48.683Z,41.90
2018-08-25T20:00:20.116Z,35.63
2018-08-25T20:02:51.828Z,48.10
2018-08-25T20:05:23.650Z,46.40
2018-08-25T20:07:55.733Z,47.30
2018-08-25T20:10:27.470Z,46.30
2018-08-25T20:12:59.396Z,47.30
2018-08-25T20:15:32.339Z,43.60
2018-08-25T20:18:04.647Z,43.47
2018-08-25T20:20:36.264Z,40.43
2018-08-25T20:23:08.353Z,46.47
2018-08-25T20:25:39.661Z,42.93
2018-08-25T20:28:11.352Z,46.23
2018-08-25T20:30:43.046Z,45.80
2018-08-25T20:33:15.783Z,44.40
2018-08-25T20:35:47.542Z,43.50
2018-08-25T20:38:19.635Z,45.90
2018-08-25T20:40:51.272Z,37.43
2018-08-25T20:43:23.067Z,50.93
2018-08-25T20:45:54.611Z,33.23
2018-08-25T20:48:26.817Z,44.33
2018-08-25T20:50:58.186Z,37.33
2018-08-25T20:53:29.962Z,40.67
2018-08-25T20:56:01.551Z,48.00
2018-08-25T20:58:33.471Z,39.70
2018-08-25T21:01:05.437Z,42.50
2018-08-25T21:03:37.355Z,36.80
2018-08-25T21:06:09.070Z,46.57
2018-08-25T21:08:40.793Z,42.10
2018-08-25T21:11:12.349Z,40.23
2018-08-25T21:13:44.402Z,46.20
2018-08-25T21:16:17.576Z,44.97
2018-08-25T21:18:50.070Z,41.20
2018-08-25T21:21:21.662Z,52.40
2018-08-25T21:23:53.535Z,45.80
2018-08-25T21:26:25.086Z,36.73
2018-08-25T21:28:56.989Z,44.63
2018-08-25T21:31:28.341Z,39.23
2018-08-25T21:34:00.290Z,44.33
2018-08-25T21:36:31.813Z,43.60
2018-08-25T21:39:03.707Z,41.70
2018-08-25T21:41:35.030Z,45.97
2018-08-25T21:44:07.095Z,43.93
2018-08-25T21:46:38.695Z,46.70
2018-08-25T21:49:10.327Z,41.00
2018-08-25T21:51:41.726Z,49.67
2018-08-25T21:54:13.748Z,43.40
2018-08-25T21:56:45.449Z,37.80
2018-08-25T21:59:17.037Z,42.10
2018-08-25T22:01:53.276Z,50.37
2018-08-25T22:04:25.294Z,46.43
2018-08-25T22:06:57.702Z,44.40
2018-08-25T22:09:29.353Z,41.93
2018-08-25T22:12:00.829Z,39.07
2018-08-25T22:14:32.537Z,54.73
2018-08-25T22:17:05.178Z,45.13
2018-08-25T22:19:37.157Z,55.97
2018-08-25T22:22:08.754Z,50.80
2018-08-25T22:24:40.502Z,46.63
2018-08-25T22:27:11.983Z,48.93
2018-08-25T22:29:43.779Z,52.00
2018-08-25T22:32:15.463Z,49.57
2018-08-25T22:34:47.372Z,46.83
2018-08-25T22:37:19.017Z,41.73
2018-08-25T22:39:50.570Z,47.90
2018-08-25T22:42:22.041Z,58.00
2018-08-25T22:44:53.542Z,45.63
2018-08-25T22:47:24.998Z,41.47
2018-08-25T22:49:56.693Z,41.03
2018-08-25T22:52:32.680Z,47.27
2018-08-25T22:55:04.894Z,48.00
2018-08-25T22:57:36.511Z,43.10
2018-08-25T23:00:08.221Z,54.33
2018-08-25T23:02:41.143Z,59.17
2018-08-25T23:05:12.900Z,38.67
2018-08-25T23:07:44.483Z,48.53
2018-08-25T23:10:16.257Z,43.20
2018-08-25T23:12:47.702Z,45.97
2018-08-25T23:15:19.614Z,41.30
2018-08-25T23:17:52.175Z,43.00
2018-08-25T23:20:23.965Z,42.93
2018-08-25T23:22:55.522Z,41.70
2018-08-25T23:25:27.363Z,50.10
2018-08-25T23:27:58.762Z,49.67
2018-08-25T23:30:30.597Z,52.00
2018-08-25T23:33:01.891Z,41.27
2018-08-25T23:35:33.782Z,44.40
2018-08-25T23:38:05.346Z,54.23
2018-08-25T23:40:37.127Z,53.80
2018-08-25T23:43:08.742Z,53.23
2018-08-25T23:45:40.515Z,46.90
2018-08-25T23:48:12.127Z,48.77
2018-08-25T23:50:43.614Z,50.33
2018-08-25T23:53:15.114Z,49.70
2018-08-25T23:55:47.315Z,48.00
2018-08-25T23:58:18.993Z,53.13
